sensor_id;sensor_type;location;lat;lon;timestamp;pressure;altitude;pressure_sealevel;temperature;humidity
51926;BME280;37952;51.938;15.480;2023-08-24T00:02:02;100073.49;;;21.35;48.48
51926;BME280;37952;51.938;15.480;2023-08-24T00:05:05;100072.65;;;21.29;48.73
51926;BME280;37952;51.938;15.480;2023-08-24T00:08:09;100075.11;;;21.26;48.74
51926;BME280;37952;51.938;15.480;2023-08-24T00:11:11;100071.48;;;21.21;48.74
51926;BME280;37952;51.938;15.480;2023-08-24T00:14:17;100069.73;;;21.13;49.19
51926;BME280;37952;51.938;15.480;2023-08-24T00:17:20;100068.39;;;21.07;49.44
51926;BME280;37952;51.938;15.480;2023-08-24T00:20:25;100064.91;;;21.07;49.10
51926;BME280;37952;51.938;15.480;2023-08-24T00:23:29;100065.78;;;21.11;48.71
51926;BME280;37952;51.938;15.480;2023-08-24T00:26:32;100066.15;;;21.15;48.78
51926;BME280;37952;51.938;15.480;2023-08-24T00:29:35;100068.20;;;21.19;48.68
51926;BME280;37952;51.938;15.480;2023-08-24T00:32:38;100072.73;;;21.24;48.77
51926;BME280;37952;51.938;15.480;2023-08-24T00:35:41;100072.14;;;21.29;48.79
51926;BME280;37952;51.938;15.480;2023-08-24T00:38:43;100070.72;;;21.28;48.70
51926;BME280;37952;51.938;15.480;2023-08-24T00:41:46;100070.88;;;21.29;48.75
51926;BME280;37952;51.938;15.480;2023-08-24T00:44:49;100072.98;;;21.29;48.72
51926;BME280;37952;51.938;15.480;2023-08-24T00:47:52;100075.60;;;21.30;48.79
51926;BME280;37952;51.938;15.480;2023-08-24T00:50:57;100077.85;;;21.29;48.70
51926;BME280;37952;51.938;15.480;2023-08-24T00:54:01;100076.91;;;21.24;48.94
51926;BME280;37952;51.938;15.480;2023-08-24T00:57:05;100076.33;;;21.19;49.04
51926;BME280;37952;51.938;15.480;2023-08-24T01:00:09;100075.04;;;21.17;48.97
51926;BME280;37952;51.938;15.480;2023-08-24T01:03:16;100075.66;;;21.16;49.02
51926;BME280;37952;51.938;15.480;2023-08-24T01:06:19;100076.83;;;21.14;49.05
51926;BME280;37952;51.938;15.480;2023-08-24T01:09:22;100080.52;;;21.15;49.21
51926;BME280;37952;51.938;15.480;2023-08-24T01:12:31;100080.70;;;21.14;49.41
51926;BME280;37952;51.938;15.480;2023-08-24T01:15:37;100080.38;;;21.10;49.56
51926;BME280;37952;51.938;15.480;2023-08-24T01:18:42;100084.02;;;21.10;49.52
51926;BME280;37952;51.938;15.480;2023-08-24T01:21:46;100088.26;;;21.10;49.59
51926;BME280;37952;51.938;15.480;2023-08-24T01:25:11;100090.09;;;21.12;49.62
51926;BME280;37952;51.938;15.480;2023-08-24T01:28:15;100091.76;;;21.11;49.51
51926;BME280;37952;51.938;15.480;2023-08-24T01:31:18;100083.69;;;21.11;49.74
51926;BME280;37952;51.938;15.480;2023-08-24T01:34:21;100080.83;;;21.09;49.71
51926;BME280;37952;51.938;15.480;2023-08-24T01:37:24;100084.77;;;21.07;49.85
51926;BME280;37952;51.938;15.480;2023-08-24T01:43:54;100087.53;;;21.04;49.91
51926;BME280;37952;51.938;15.480;2023-08-24T01:47:01;100093.48;;;21.03;50.02
51926;BME280;37952;51.938;15.480;2023-08-24T01:50:07;100099.40;;;21.01;50.16
51926;BME280;37952;51.938;15.480;2023-08-24T01:53:10;100092.94;;;20.99;50.26
51926;BME280;37952;51.938;15.480;2023-08-24T01:56:14;100091.28;;;20.98;50.38
51926;BME280;37952;51.938;15.480;2023-08-24T01:59:18;100090.04;;;20.96;50.28
51926;BME280;37952;51.938;15.480;2023-08-24T02:02:20;100089.19;;;20.94;50.62
51926;BME280;37952;51.938;15.480;2023-08-24T02:05:23;100084.04;;;20.91;50.51
51926;BME280;37952;51.938;15.480;2023-08-24T02:08:30;100079.19;;;20.88;50.57
51926;BME280;37952;51.938;15.480;2023-08-24T02:11:33;100079.64;;;20.83;50.54
51926;BME280;37952;51.938;15.480;2023-08-24T02:14:36;100075.36;;;20.78;50.80
51926;BME280;37952;51.938;15.480;2023-08-24T02:17:39;100078.98;;;20.77;50.87
51926;BME280;37952;51.938;15.480;2023-08-24T02:20:42;100075.41;;;20.73;51.00
51926;BME280;37952;51.938;15.480;2023-08-24T02:23:44;100077.53;;;20.70;51.03
51926;BME280;37952;51.938;15.480;2023-08-24T02:26:47;100072.84;;;20.67;51.16
51926;BME280;37952;51.938;15.480;2023-08-24T02:29:50;100066.75;;;20.63;51.37
51926;BME280;37952;51.938;15.480;2023-08-24T02:32:53;100064.40;;;20.59;51.50
51926;BME280;37952;51.938;15.480;2023-08-24T02:35:56;100067.65;;;20.56;51.56
51926;BME280;37952;51.938;15.480;2023-08-24T02:38:59;100067.54;;;20.51;51.44
51926;BME280;37952;51.938;15.480;2023-08-24T02:42:03;100059.09;;;20.44;51.57
51926;BME280;37952;51.938;15.480;2023-08-24T02:45:06;100058.98;;;20.41;51.82
51926;BME280;37952;51.938;15.480;2023-08-24T02:48:09;100058.74;;;20.38;51.95
51926;BME280;37952;51.938;15.480;2023-08-24T02:51:13;100061.64;;;20.36;51.99
51926;BME280;37952;51.938;15.480;2023-08-24T02:54:15;100062.73;;;20.34;52.19
51926;BME280;37952;51.938;15.480;2023-08-24T02:57:18;100065.13;;;20.33;52.26
51926;BME280;37952;51.938;15.480;2023-08-24T03:00:21;100062.08;;;20.33;52.27
51926;BME280;37952;51.938;15.480;2023-08-24T03:03:24;100062.51;;;20.33;52.24
51926;BME280;37952;51.938;15.480;2023-08-24T03:06:28;100065.48;;;20.31;52.44
51926;BME280;37952;51.938;15.480;2023-08-24T03:09:31;100064.74;;;20.30;52.60
51926;BME280;37952;51.938;15.480;2023-08-24T03:12:34;100065.65;;;20.26;52.69
51926;BME280;37952;51.938;15.480;2023-08-24T03:15:36;100065.38;;;20.23;52.76
51926;BME280;37952;51.938;15.480;2023-08-24T03:18:41;100065.61;;;20.22;52.81
51926;BME280;37952;51.938;15.480;2023-08-24T03:21:44;100068.41;;;20.21;52.80
51926;BME280;37952;51.938;15.480;2023-08-24T03:24:47;100066.30;;;20.21;52.87
51926;BME280;37952;51.938;15.480;2023-08-24T03:27:50;100070.11;;;20.20;52.77
51926;BME280;37952;51.938;15.480;2023-08-24T03:30:53;100076.33;;;20.21;52.73
51926;BME280;37952;51.938;15.480;2023-08-24T03:33:58;100073.71;;;20.22;52.89
51926;BME280;37952;51.938;15.480;2023-08-24T03:37:01;100072.97;;;20.21;52.81
51926;BME280;37952;51.938;15.480;2023-08-24T03:40:04;100077.87;;;20.18;52.92
51926;BME280;37952;51.938;15.480;2023-08-24T03:43:08;100079.02;;;20.15;53.04
51926;BME280;37952;51.938;15.480;2023-08-24T03:46:11;100073.90;;;20.15;53.28
51926;BME280;37952;51.938;15.480;2023-08-24T03:49:14;100069.75;;;20.13;53.23
51926;BME280;37952;51.938;15.480;2023-08-24T03:52:17;100066.77;;;20.10;53.29
51926;BME280;37952;51.938;15.480;2023-08-24T03:55:21;100064.89;;;20.08;53.37
51926;BME280;37952;51.938;15.480;2023-08-24T03:58:24;100060.30;;;20.07;53.46
51926;BME280;37952;51.938;15.480;2023-08-24T04:01:26;100064.45;;;20.07;53.66
51926;BME280;37952;51.938;15.480;2023-08-24T04:04:30;100060.10;;;20.08;53.67
51926;BME280;37952;51.938;15.480;2023-08-24T04:07:33;100060.47;;;20.09;53.65
51926;BME280;37952;51.938;15.480;2023-08-24T04:10:39;100052.34;;;20.08;53.98
51926;BME280;37952;51.938;15.480;2023-08-24T04:13:41;100048.59;;;20.08;54.00
51926;BME280;37952;51.938;15.480;2023-08-24T04:16:44;100045.48;;;20.09;54.21
51926;BME280;37952;51.938;15.480;2023-08-24T04:19:50;100048.83;;;20.09;54.30
51926;BME280;37952;51.938;15.480;2023-08-24T04:22:54;100047.39;;;20.09;54.24
51926;BME280;37952;51.938;15.480;2023-08-24T04:25:58;100049.95;;;20.10;54.46
51926;BME280;37952;51.938;15.480;2023-08-24T04:29:01;100052.41;;;20.13;54.58
51926;BME280;37952;51.938;15.480;2023-08-24T04:32:04;100052.36;;;20.15;54.74
51926;BME280;37952;51.938;15.480;2023-08-24T04:35:07;100053.48;;;20.17;54.82
51926;BME280;37952;51.938;15.480;2023-08-24T04:38:10;100052.67;;;20.18;54.88
51926;BME280;37952;51.938;15.480;2023-08-24T04:41:13;100054.83;;;20.21;55.03
51926;BME280;37952;51.938;15.480;2023-08-24T04:44:16;100061.33;;;20.24;54.98
51926;BME280;37952;51.938;15.480;2023-08-24T04:47:19;100061.27;;;20.27;55.36
51926;BME280;37952;51.938;15.480;2023-08-24T04:50:21;100061.77;;;20.31;55.43
51926;BME280;37952;51.938;15.480;2023-08-24T04:53:25;100061.08;;;20.34;55.39
51926;BME280;37952;51.938;15.480;2023-08-24T04:56:28;100054.08;;;20.38;55.70
51926;BME280;37952;51.938;15.480;2023-08-24T04:59:31;100058.04;;;20.42;55.72
51926;BME280;37952;51.938;15.480;2023-08-24T05:02:34;100061.88;;;20.45;55.84
51926;BME280;37952;51.938;15.480;2023-08-24T05:05:37;100061.80;;;20.47;55.99
51926;BME280;37952;51.938;15.480;2023-08-24T05:08:40;100064.35;;;20.50;55.96
51926;BME280;37952;51.938;15.480;2023-08-24T05:11:43;100058.45;;;20.54;56.15
51926;BME280;37952;51.938;15.480;2023-08-24T05:14:46;100057.39;;;20.58;56.12
51926;BME280;37952;51.938;15.480;2023-08-24T05:17:49;100054.57;;;20.61;56.07
51926;BME280;37952;51.938;15.480;2023-08-24T05:20:53;100056.02;;;20.64;56.13
51926;BME280;37952;51.938;15.480;2023-08-24T05:23:56;100058.75;;;20.68;56.27
51926;BME280;37952;51.938;15.480;2023-08-24T05:26:58;100057.32;;;20.70;56.23
51926;BME280;37952;51.938;15.480;2023-08-24T05:30:01;100064.30;;;20.73;56.36
51926;BME280;37952;51.938;15.480;2023-08-24T05:33:04;100065.48;;;20.76;56.36
51926;BME280;37952;51.938;15.480;2023-08-24T05:36:07;100073.50;;;20.80;56.36
51926;BME280;37952;51.938;15.480;2023-08-24T05:39:10;100074.67;;;20.85;56.16
51926;BME280;37952;51.938;15.480;2023-08-24T05:42:13;100061.86;;;20.82;56.21
51926;BME280;37952;51.938;15.480;2023-08-24T05:45:16;100071.87;;;20.91;56.23
51926;BME280;37952;51.938;15.480;2023-08-24T05:48:19;100069.52;;;20.93;56.25
51926;BME280;37952;51.938;15.480;2023-08-24T05:51:22;100066.60;;;20.96;56.33
51926;BME280;37952;51.938;15.480;2023-08-24T05:54:25;100072.20;;;20.99;56.33
51926;BME280;37952;51.938;15.480;2023-08-24T05:57:27;100072.02;;;21.01;56.35
51926;BME280;37952;51.938;15.480;2023-08-24T06:00:30;100074.27;;;21.03;56.43
51926;BME280;37952;51.938;15.480;2023-08-24T06:03:33;100067.84;;;21.07;56.41
51926;BME280;37952;51.938;15.480;2023-08-24T06:06:37;100069.70;;;21.10;56.45
51926;BME280;37952;51.938;15.480;2023-08-24T06:09:40;100072.00;;;21.12;56.40
51926;BME280;37952;51.938;15.480;2023-08-24T06:12:42;100062.34;;;21.14;56.29
51926;BME280;37952;51.938;15.480;2023-08-24T06:15:45;100062.98;;;21.16;56.23
51926;BME280;37952;51.938;15.480;2023-08-24T06:18:48;100058.21;;;21.19;56.32
51926;BME280;37952;51.938;15.480;2023-08-24T06:21:52;100058.49;;;21.19;56.26
51926;BME280;37952;51.938;15.480;2023-08-24T06:24:55;100056.88;;;21.19;56.24
51926;BME280;37952;51.938;15.480;2023-08-24T06:28:03;100060.61;;;21.20;56.20
51926;BME280;37952;51.938;15.480;2023-08-24T06:31:06;100053.63;;;21.20;56.20
51926;BME280;37952;51.938;15.480;2023-08-24T06:34:12;100062.64;;;21.21;56.28
51926;BME280;37952;51.938;15.480;2023-08-24T06:37:15;100060.71;;;21.24;56.42
51926;BME280;37952;51.938;15.480;2023-08-24T06:40:18;100063.77;;;21.28;56.31
51926;BME280;37952;51.938;15.480;2023-08-24T06:43:21;100060.92;;;21.31;56.43
51926;BME280;37952;51.938;15.480;2023-08-24T06:46:24;100062.79;;;21.32;56.20
51926;BME280;37952;51.938;15.480;2023-08-24T06:49:26;100068.70;;;21.36;56.62
51926;BME280;37952;51.938;15.480;2023-08-24T06:52:29;100063.43;;;21.39;56.54
51926;BME280;37952;51.938;15.480;2023-08-24T06:55:32;100059.75;;;21.41;56.60
51926;BME280;37952;51.938;15.480;2023-08-24T06:58:35;100057.67;;;21.44;56.48
51926;BME280;37952;51.938;15.480;2023-08-24T07:01:38;100062.75;;;21.47;56.51
51926;BME280;37952;51.938;15.480;2023-08-24T07:04:41;100063.85;;;21.51;56.20
51926;BME280;37952;51.938;15.480;2023-08-24T07:07:45;100068.38;;;21.55;56.18
51926;BME280;37952;51.938;15.480;2023-08-24T07:10:48;100069.89;;;21.58;56.19
51926;BME280;37952;51.938;15.480;2023-08-24T07:13:51;100070.78;;;21.61;56.22
51926;BME280;37952;51.938;15.480;2023-08-24T07:16:56;100072.61;;;21.65;56.09
51926;BME280;37952;51.938;15.480;2023-08-24T07:19:59;100071.84;;;21.69;56.06
51926;BME280;37952;51.938;15.480;2023-08-24T07:23:02;100072.77;;;21.72;56.03
51926;BME280;37952;51.938;15.480;2023-08-24T07:26:05;100073.21;;;21.75;55.56
51926;BME280;37952;51.938;15.480;2023-08-24T07:29:08;100073.02;;;21.77;55.41
51926;BME280;37952;51.938;15.480;2023-08-24T07:32:12;100073.61;;;21.80;55.21
51926;BME280;37952;51.938;15.480;2023-08-24T07:35:15;100074.45;;;21.84;54.97
51926;BME280;37952;51.938;15.480;2023-08-24T07:38:19;100078.73;;;21.86;54.54
51926;BME280;37952;51.938;15.480;2023-08-24T07:41:22;100075.95;;;21.89;54.13
51926;BME280;37952;51.938;15.480;2023-08-24T07:44:25;100085.15;;;21.92;54.10
51926;BME280;37952;51.938;15.480;2023-08-24T07:47:28;100078.52;;;21.93;53.72
51926;BME280;37952;51.938;15.480;2023-08-24T07:50:31;100078.93;;;21.94;53.73
51926;BME280;37952;51.938;15.480;2023-08-24T07:53:34;100075.89;;;21.93;52.34
51926;BME280;37952;51.938;15.480;2023-08-24T07:56:37;100072.12;;;21.91;52.78
51926;BME280;37952;51.938;15.480;2023-08-24T07:59:40;100079.56;;;21.97;53.20
51926;BME280;37952;51.938;15.480;2023-08-24T08:02:43;100082.94;;;22.03;53.00
51926;BME280;37952;51.938;15.480;2023-08-24T08:05:47;100083.36;;;22.05;52.54
51926;BME280;37952;51.938;15.480;2023-08-24T08:08:50;100076.42;;;22.08;52.33
51926;BME280;37952;51.938;15.480;2023-08-24T08:11:53;100073.89;;;22.10;51.56
51926;BME280;37952;51.938;15.480;2023-08-24T08:14:56;100078.24;;;22.12;51.74
51926;BME280;37952;51.938;15.480;2023-08-24T08:17:59;100078.13;;;22.16;51.64
51926;BME280;37952;51.938;15.480;2023-08-24T08:21:15;100081.61;;;22.20;51.53
51926;BME280;37952;51.938;15.480;2023-08-24T08:24:23;100090.92;;;22.25;51.28
51926;BME280;37952;51.938;15.480;2023-08-24T08:27:27;100086.21;;;22.28;51.24
51926;BME280;37952;51.938;15.480;2023-08-24T08:30:30;100090.81;;;22.32;51.11
51926;BME280;37952;51.938;15.480;2023-08-24T08:33:33;100085.88;;;22.37;51.10
51926;BME280;37952;51.938;15.480;2023-08-24T08:36:36;100086.80;;;22.40;50.70
51926;BME280;37952;51.938;15.480;2023-08-24T08:39:39;100085.02;;;22.43;49.88
51926;BME280;37952;51.938;15.480;2023-08-24T08:42:42;100077.02;;;22.46;48.24
51926;BME280;37952;51.938;15.480;2023-08-24T08:45:45;100070.99;;;22.49;47.08
51926;BME280;37952;51.938;15.480;2023-08-24T08:48:51;100067.94;;;22.52;46.08
51926;BME280;37952;51.938;15.480;2023-08-24T08:51:55;100069.10;;;22.58;47.90
51926;BME280;37952;51.938;15.480;2023-08-24T08:54:58;100074.77;;;22.63;48.21
51926;BME280;37952;51.938;15.480;2023-08-24T08:58:02;100072.44;;;22.66;47.95
51926;BME280;37952;51.938;15.480;2023-08-24T09:01:06;100070.16;;;22.68;48.06
51926;BME280;37952;51.938;15.480;2023-08-24T09:04:10;100074.20;;;22.71;47.65
51926;BME280;37952;51.938;15.480;2023-08-24T09:07:13;100069.79;;;22.72;47.72
51926;BME280;37952;51.938;15.480;2023-08-24T09:10:16;100071.89;;;22.75;47.95
51926;BME280;37952;51.938;15.480;2023-08-24T09:13:19;100065.26;;;22.78;47.93
51926;BME280;37952;51.938;15.480;2023-08-24T09:16:29;100070.16;;;22.80;47.84
51926;BME280;37952;51.938;15.480;2023-08-24T09:19:37;100070.59;;;22.82;47.57
51926;BME280;37952;51.938;15.480;2023-08-24T09:22:41;100068.73;;;22.86;47.85
51926;BME280;37952;51.938;15.480;2023-08-24T09:25:47;100063.10;;;22.89;46.82
51926;BME280;37952;51.938;15.480;2023-08-24T09:28:51;100054.17;;;22.92;47.02
51926;BME280;37952;51.938;15.480;2023-08-24T09:31:53;100050.60;;;22.99;47.15
51926;BME280;37952;51.938;15.480;2023-08-24T09:35:02;100045.25;;;23.06;47.24
51926;BME280;37952;51.938;15.480;2023-08-24T09:38:20;100045.11;;;23.13;46.68
51926;BME280;37952;51.938;15.480;2023-08-24T09:41:23;100040.41;;;23.21;46.76
51926;BME280;37952;51.938;15.480;2023-08-24T09:44:28;100037.23;;;23.32;46.66
51926;BME280;37952;51.938;15.480;2023-08-24T09:47:30;100027.34;;;23.46;46.93
51926;BME280;37952;51.938;15.480;2023-08-24T09:50:34;100021.66;;;23.58;45.95
51926;BME280;37952;51.938;15.480;2023-08-24T09:53:39;100011.96;;;23.72;45.66
51926;BME280;37952;51.938;15.480;2023-08-24T09:56:44;100008.59;;;23.90;45.79
51926;BME280;37952;51.938;15.480;2023-08-24T09:59:49;99998.48;;;24.03;45.65
51926;BME280;37952;51.938;15.480;2023-08-24T10:02:55;99994.05;;;24.15;45.77
51926;BME280;37952;51.938;15.480;2023-08-24T10:06:01;99993.46;;;24.25;44.81
51926;BME280;37952;51.938;15.480;2023-08-24T10:09:14;99982.56;;;24.34;44.60
51926;BME280;37952;51.938;15.480;2023-08-24T10:12:23;99976.98;;;24.40;43.83
51926;BME280;37952;51.938;15.480;2023-08-24T10:15:27;99973.09;;;24.41;43.03
51926;BME280;37952;51.938;15.480;2023-08-24T10:18:30;99969.83;;;24.43;43.81
51926;BME280;37952;51.938;15.480;2023-08-24T10:21:34;99966.71;;;24.45;43.85
51926;BME280;37952;51.938;15.480;2023-08-24T10:24:41;99960.91;;;24.47;43.88
51926;BME280;37952;51.938;15.480;2023-08-24T10:27:45;99961.90;;;24.48;44.06
51926;BME280;37952;51.938;15.480;2023-08-24T10:30:50;99968.02;;;24.48;43.68
51926;BME280;37952;51.938;15.480;2023-08-24T10:33:56;99973.54;;;24.45;43.82
51926;BME280;37952;51.938;15.480;2023-08-24T10:37:09;99977.82;;;24.46;44.05
51926;BME280;37952;51.938;15.480;2023-08-24T10:40:13;99977.36;;;24.51;44.02
51926;BME280;37952;51.938;15.480;2023-08-24T10:43:16;99973.71;;;24.60;44.01
51926;BME280;37952;51.938;15.480;2023-08-24T10:46:18;99973.52;;;24.78;43.77
51926;BME280;37952;51.938;15.480;2023-08-24T10:49:29;99970.41;;;24.96;43.60
51926;BME280;37952;51.938;15.480;2023-08-24T10:52:35;99966.67;;;25.01;43.53
51926;BME280;37952;51.938;15.480;2023-08-24T10:55:42;99966.84;;;25.12;43.59
51926;BME280;37952;51.938;15.480;2023-08-24T10:58:45;99964.99;;;25.28;42.81
51926;BME280;37952;51.938;15.480;2023-08-24T11:05:07;99967.23;;;25.45;41.06
51926;BME280;37952;51.938;15.480;2023-08-24T11:08:16;99963.83;;;25.44;41.25
51926;BME280;37952;51.938;15.480;2023-08-24T11:11:21;99958.67;;;25.37;41.07
51926;BME280;37952;51.938;15.480;2023-08-24T11:14:24;99949.52;;;25.29;41.98
51926;BME280;37952;51.938;15.480;2023-08-24T11:17:35;99952.16;;;25.38;42.06
51926;BME280;37952;51.938;15.480;2023-08-24T11:20:42;99945.90;;;25.48;42.17
51926;BME280;37952;51.938;15.480;2023-08-24T11:23:45;99936.31;;;25.62;42.04
51926;BME280;37952;51.938;15.480;2023-08-24T11:26:49;99939.45;;;25.80;41.64
51926;BME280;37952;51.938;15.480;2023-08-24T11:30:00;99936.12;;;25.94;41.27
51926;BME280;37952;51.938;15.480;2023-08-24T11:33:04;99932.08;;;26.05;40.26
51926;BME280;37952;51.938;15.480;2023-08-24T11:36:08;99931.44;;;26.17;40.57
51926;BME280;37952;51.938;15.480;2023-08-24T11:39:16;99937.54;;;26.25;40.15
51926;BME280;37952;51.938;15.480;2023-08-24T11:42:20;99934.98;;;26.26;39.76
51926;BME280;37952;51.938;15.480;2023-08-24T11:45:23;99940.60;;;26.37;40.62
51926;BME280;37952;51.938;15.480;2023-08-24T11:48:26;99938.98;;;26.51;40.67
51926;BME280;37952;51.938;15.480;2023-08-24T11:51:32;99941.27;;;26.55;40.17
51926;BME280;37952;51.938;15.480;2023-08-24T11:54:45;99937.62;;;26.54;39.55
51926;BME280;37952;51.938;15.480;2023-08-24T11:57:48;99935.22;;;26.61;38.47
51926;BME280;37952;51.938;15.480;2023-08-24T12:00:52;99931.71;;;27.09;37.78
51926;BME280;37952;51.938;15.480;2023-08-24T12:03:55;99923.49;;;27.38;36.75
51926;BME280;37952;51.938;15.480;2023-08-24T12:06:58;99919.94;;;27.31;37.04
51926;BME280;37952;51.938;15.480;2023-08-24T12:10:02;99910.27;;;27.52;36.82
51926;BME280;37952;51.938;15.480;2023-08-24T12:13:05;99905.30;;;27.83;36.38
51926;BME280;37952;51.938;15.480;2023-08-24T12:16:10;99894.05;;;27.97;36.94
51926;BME280;37952;51.938;15.480;2023-08-24T12:19:15;99887.91;;;27.99;37.90
51926;BME280;37952;51.938;15.480;2023-08-24T12:22:19;99884.33;;;27.99;37.75
51926;BME280;37952;51.938;15.480;2023-08-24T12:25:22;99889.96;;;27.97;37.20
51926;BME280;37952;51.938;15.480;2023-08-24T12:28:29;99894.71;;;27.76;36.07
51926;BME280;37952;51.938;15.480;2023-08-24T12:31:35;99889.11;;;27.70;36.89
51926;BME280;37952;51.938;15.480;2023-08-24T12:34:38;99882.69;;;27.75;36.89
51926;BME280;37952;51.938;15.480;2023-08-24T12:37:41;99864.98;;;27.69;36.85
51926;BME280;37952;51.938;15.480;2023-08-24T12:40:44;99860.57;;;27.74;37.05
51926;BME280;37952;51.938;15.480;2023-08-24T12:43:47;99861.71;;;27.82;35.30
51926;BME280;37952;51.938;15.480;2023-08-24T12:46:50;99863.81;;;27.85;35.74
51926;BME280;37952;51.938;15.480;2023-08-24T12:49:53;99854.71;;;27.94;36.77
51926;BME280;37952;51.938;15.480;2023-08-24T12:52:57;99845.23;;;27.97;36.03
51926;BME280;37952;51.938;15.480;2023-08-24T12:56:02;99848.48;;;27.98;36.48
51926;BME280;37952;51.938;15.480;2023-08-24T12:59:05;99845.11;;;28.07;36.09
51926;BME280;37952;51.938;15.480;2023-08-24T13:02:08;99842.36;;;28.15;36.30
51926;BME280;37952;51.938;15.480;2023-08-24T13:05:12;99837.25;;;28.09;34.51
51926;BME280;37952;51.938;15.480;2023-08-24T13:08:15;99827.35;;;28.02;35.35
51926;BME280;37952;51.938;15.480;2023-08-24T13:11:18;99830.30;;;28.11;35.93
51926;BME280;37952;51.938;15.480;2023-08-24T13:14:21;99838.22;;;28.13;35.41
51926;BME280;37952;51.938;15.480;2023-08-24T13:17:24;99832.91;;;28.21;35.64
51926;BME280;37952;51.938;15.480;2023-08-24T13:20:27;99826.02;;;28.38;34.41
51926;BME280;37952;51.938;15.480;2023-08-24T13:23:29;99826.27;;;28.60;35.44
51926;BME280;37952;51.938;15.480;2023-08-24T13:26:32;99821.14;;;28.63;34.86
51926;BME280;37952;51.938;15.480;2023-08-24T13:29:40;99815.63;;;28.59;34.41
51926;BME280;37952;51.938;15.480;2023-08-24T13:32:42;99806.23;;;28.49;34.59
51926;BME280;37952;51.938;15.480;2023-08-24T13:35:46;99803.30;;;28.49;34.50
51926;BME280;37952;51.938;15.480;2023-08-24T13:38:49;99790.91;;;28.58;35.27
51926;BME280;37952;51.938;15.480;2023-08-24T13:41:52;99782.34;;;28.82;35.20
51926;BME280;37952;51.938;15.480;2023-08-24T13:44:55;99778.57;;;29.03;35.18
51926;BME280;37952;51.938;15.480;2023-08-24T13:47:58;99776.40;;;29.11;35.60
51926;BME280;37952;51.938;15.480;2023-08-24T13:51:01;99765.83;;;29.24;35.70
51926;BME280;37952;51.938;15.480;2023-08-24T13:54:13;99762.36;;;29.39;34.86
51926;BME280;37952;51.938;15.480;2023-08-24T13:57:17;99762.06;;;29.52;34.69
51926;BME280;37952;51.938;15.480;2023-08-24T14:00:20;99750.80;;;29.65;34.47
51926;BME280;37952;51.938;15.480;2023-08-24T14:03:25;99744.41;;;29.78;35.05
51926;BME280;37952;51.938;15.480;2023-08-24T14:06:29;99743.38;;;29.94;34.78
51926;BME280;37952;51.938;15.480;2023-08-24T14:09:32;99737.63;;;30.03;34.63
51926;BME280;37952;51.938;15.480;2023-08-24T14:12:35;99718.60;;;30.10;34.24
51926;BME280;37952;51.938;15.480;2023-08-24T14:15:38;99713.48;;;30.11;33.26
51926;BME280;37952;51.938;15.480;2023-08-24T14:18:41;99711.85;;;30.16;33.00
51926;BME280;37952;51.938;15.480;2023-08-24T14:21:44;99721.66;;;30.07;33.65
51926;BME280;37952;51.938;15.480;2023-08-24T14:24:47;99719.63;;;30.24;34.66
51926;BME280;37952;51.938;15.480;2023-08-24T14:27:50;99725.52;;;30.42;34.63
51926;BME280;37952;51.938;15.480;2023-08-24T14:31:06;99724.15;;;30.60;34.40
51926;BME280;37952;51.938;15.480;2023-08-24T14:34:09;99713.09;;;30.65;32.35
51926;BME280;37952;51.938;15.480;2023-08-24T14:37:12;99713.85;;;30.59;33.28
51926;BME280;37952;51.938;15.480;2023-08-24T14:40:14;99710.80;;;30.72;33.10
51926;BME280;37952;51.938;15.480;2023-08-24T14:43:18;99709.77;;;30.76;31.75
51926;BME280;37952;51.938;15.480;2023-08-24T14:46:21;99708.90;;;31.00;31.61
51926;BME280;37952;51.938;15.480;2023-08-24T14:49:24;99705.89;;;31.45;31.74
51926;BME280;37952;51.938;15.480;2023-08-24T14:52:27;99707.02;;;31.70;32.61
51926;BME280;37952;51.938;15.480;2023-08-24T14:55:30;99703.93;;;31.86;32.43
51926;BME280;37952;51.938;15.480;2023-08-24T14:58:33;99699.44;;;31.95;31.89
51926;BME280;37952;51.938;15.480;2023-08-24T15:01:36;99693.77;;;32.00;31.38
51926;BME280;37952;51.938;15.480;2023-08-24T15:04:39;99689.23;;;31.94;31.32
51926;BME280;37952;51.938;15.480;2023-08-24T15:07:41;99695.47;;;31.97;31.64
51926;BME280;37952;51.938;15.480;2023-08-24T15:10:44;99687.14;;;32.03;32.18
51926;BME280;37952;51.938;15.480;2023-08-24T15:13:47;99687.23;;;32.07;30.58
51926;BME280;37952;51.938;15.480;2023-08-24T15:16:50;99688.92;;;32.15;29.64
51926;BME280;37952;51.938;15.480;2023-08-24T15:19:54;99695.94;;;32.42;29.10
51926;BME280;37952;51.938;15.480;2023-08-24T15:22:59;99687.34;;;32.51;28.88
51926;BME280;37952;51.938;15.480;2023-08-24T15:26:02;99684.95;;;32.53;28.59
51926;BME280;37952;51.938;15.480;2023-08-24T15:29:12;99689.23;;;32.51;28.86
51926;BME280;37952;51.938;15.480;2023-08-24T15:32:18;99689.36;;;32.55;28.38
51926;BME280;37952;51.938;15.480;2023-08-24T15:35:21;99689.89;;;32.66;28.31
51926;BME280;37952;51.938;15.480;2023-08-24T15:38:24;99675.02;;;32.70;28.21
51926;BME280;37952;51.938;15.480;2023-08-24T15:41:27;99678.60;;;32.68;28.37
51926;BME280;37952;51.938;15.480;2023-08-24T15:44:30;99677.57;;;32.68;28.26
51926;BME280;37952;51.938;15.480;2023-08-24T15:47:33;99679.08;;;32.54;28.17
51926;BME280;37952;51.938;15.480;2023-08-24T15:50:36;99687.71;;;32.51;28.55
51926;BME280;37952;51.938;15.480;2023-08-24T15:53:39;99698.50;;;32.61;28.51
51926;BME280;37952;51.938;15.480;2023-08-24T15:56:42;99704.03;;;32.66;29.58
51926;BME280;37952;51.938;15.480;2023-08-24T15:59:47;99699.53;;;32.74;29.77